Time;durP1;ratioP1;P1;durP2;ratioP2;P2;SDS_P1;SDS_P2;PMS_P1;PMS_P2;Temp;Humidity;BMP_temperature;BMP_pressure;BME280_temperature;BME280_humidity;BME280_pressure;Samples;Min_cycle;Max_cycle;Signal;HPM_P1;HPM_P2
2024/03/16 00:02:03;;;;;;;0.70;0.70;;;;;;;9.46;100.00;98018.06;4976928;28;20234;-78
2024/03/16 00:04:30;;;;;;;0.77;0.77;;;;;;;9.40;100.00;98016.69;4975676;28;20214;-78
2024/03/16 00:06:57;;;;;;;1.73;0.70;;;;;;;9.43;100.00;98028.84;4977293;28;20214;-78
2024/03/16 00:09:24;;;;;;;2.03;0.80;;;;;;;9.43;100.00;98027.03;4977467;28;20269;-78
2024/03/16 00:11:51;;;;;;;1.03;0.70;;;;;;;9.44;100.00;98022.59;4976977;28;20666;-78
2024/03/16 00:14:17;;;;;;;1.17;0.70;;;;;;;9.46;100.00;98018.06;4976766;28;20220;-78
2024/03/16 00:16:44;;;;;;;0.50;0.50;;;;;;;9.50;100.00;98019.56;4977363;28;20214;-79
2024/03/16 00:19:11;;;;;;;0.80;0.67;;;;;;;9.49;100.00;98020.50;4977943;28;20570;-78
2024/03/16 00:21:37;;;;;;;0.60;0.50;;;;;;;9.47;100.00;98019.75;4977131;28;20234;-78
2024/03/16 00:24:04;;;;;;;0.60;0.60;;;;;;;9.50;100.00;98015.13;4977328;28;20220;-78
2024/03/16 00:26:30;;;;;;;0.40;0.40;;;;;;;9.49;100.00;98023.16;4976565;28;20214;-79
2024/03/16 00:28:58;;;;;;;0.40;0.40;;;;;;;9.48;100.00;98029.38;4976372;28;20206;-78
2024/03/16 00:31:24;;;;;;;0.50;0.50;;;;;;;9.47;100.00;98030.31;4976128;28;20319;-78
2024/03/16 00:33:51;;;;;;;1.50;0.60;;;;;;;9.49;100.00;98039.81;4976297;28;20213;-78
2024/03/16 00:36:19;;;;;;;0.43;0.43;;;;;;;9.52;100.00;98028.22;4976017;28;20219;-78
2024/03/16 00:38:49;;;;;;;1.20;0.60;;;;;;;9.51;100.00;98023.88;4975895;28;20211;-78
2024/03/16 00:41:16;;;;;;;0.70;0.60;;;;;;;9.47;100.00;98022.38;4975821;28;20230;-78
2024/03/16 00:43:42;;;;;;;1.27;0.47;;;;;;;9.49;100.00;98016.06;4975558;28;20347;-78
2024/03/16 00:46:09;;;;;;;0.50;0.50;;;;;;;9.39;100.00;98011.50;4975634;28;20226;-78
2024/03/16 00:48:36;;;;;;;2.10;0.50;;;;;;;9.36;100.00;98019.63;4976127;28;20206;-78
2024/03/16 00:51:03;;;;;;;0.47;0.40;;;;;;;9.29;100.00;98015.69;4975746;28;20237;-78
2024/03/16 00:53:29;;;;;;;0.40;0.40;;;;;;;9.22;100.00;98022.31;4975576;28;20206;-78
2024/03/16 00:55:56;;;;;;;0.73;0.50;;;;;;;9.14;100.00;98021.97;4975187;28;20252;-78
2024/03/16 00:58:22;;;;;;;1.70;0.80;;;;;;;9.11;100.00;98019.56;4975002;28;20221;-78
2024/03/16 01:00:51;;;;;;;0.67;0.50;;;;;;;9.11;100.00;98016.94;4974931;28;20747;-78
2024/03/16 01:03:18;;;;;;;0.83;0.53;;;;;;;9.15;100.00;98029.78;4975469;28;20238;-78
2024/03/16 01:05:45;;;;;;;0.97;0.70;;;;;;;9.09;100.00;98030.19;4975327;28;20217;-78
2024/03/16 01:08:11;;;;;;;0.30;0.30;;;;;;;9.03;100.00;98027.09;4975176;28;20211;-78
2024/03/16 01:10:38;;;;;;;0.70;0.40;;;;;;;9.02;100.00;98028.03;4974925;28;20240;-79
2024/03/16 01:13:05;;;;;;;0.77;0.40;;;;;;;8.96;100.00;98036.34;4974849;28;20269;-78
2024/03/16 01:15:32;;;;;;;0.73;0.50;;;;;;;9.00;100.00;98040.50;4974502;28;20274;-78
2024/03/16 01:18:02;;;;;;;0.47;0.47;;;;;;;9.00;100.00;98033.41;4974891;28;20268;-78
2024/03/16 01:20:29;;;;;;;0.97;0.30;;;;;;;9.12;100.00;98031.78;4974821;28;20402;-78
2024/03/16 01:22:55;;;;;;;0.40;0.40;;;;;;;9.18;100.00;98031.41;4974770;28;20244;-77
2024/03/16 01:25:22;;;;;;;0.40;0.40;;;;;;;9.29;100.00;98010.41;4974538;28;20215;-78
2024/03/16 01:27:49;;;;;;;0.40;0.40;;;;;;;9.25;100.00;98008.94;4974143;28;20231;-78
2024/03/16 01:30:16;;;;;;;0.40;0.40;;;;;;;9.22;100.00;98017.91;4974105;28;20215;-78
2024/03/16 01:32:43;;;;;;;0.40;0.40;;;;;;;9.23;100.00;98005.56;4974655;28;20211;-78
2024/03/16 01:35:10;;;;;;;0.40;0.40;;;;;;;9.20;100.00;98008.41;4974213;28;20310;-78
2024/03/16 01:37:37;;;;;;;0.30;0.30;;;;;;;9.22;100.00;97998.59;4974161;28;20217;-78
2024/03/16 01:40:06;;;;;;;0.70;0.57;;;;;;;9.16;100.00;98002.47;4973521;28;20843;-78
2024/03/16 01:42:33;;;;;;;2.53;0.47;;;;;;;9.20;100.00;98003.13;4974423;28;20238;-78
2024/03/16 01:45:03;;;;;;;0.90;0.50;;;;;;;9.20;100.00;98005.75;4974095;28;20669;-79
2024/03/16 01:47:31;;;;;;;0.60;0.60;;;;;;;9.16;100.00;98006.91;4974470;28;20225;-78
2024/03/16 01:49:58;;;;;;;1.13;0.60;;;;;;;9.18;100.00;98019.03;4974554;28;20213;-78
2024/03/16 01:52:24;;;;;;;0.50;0.30;;;;;;;9.19;100.00;98004.91;4974049;28;20233;-79
2024/03/16 01:54:51;;;;;;;0.33;0.30;;;;;;;9.24;100.00;98013.34;4974045;28;20215;-80
2024/03/16 01:57:18;;;;;;;1.37;0.90;;;;;;;9.20;100.00;98011.03;4974229;28;20217;-78
2024/03/16 01:59:44;;;;;;;1.57;0.50;;;;;;;9.17;100.00;98016.53;4974750;28;20214;-78
2024/03/16 02:02:16;;;;;;;0.33;0.33;;;;;;;9.15;100.00;98021.03;4975469;28;20725;-78
2024/03/16 02:04:43;;;;;;;1.17;0.43;;;;;;;9.14;100.00;98024.63;4975334;28;20224;-78
2024/03/16 02:07:10;;;;;;;0.80;0.50;;;;;;;9.15;100.00;98016.63;4974994;28;20212;-78
2024/03/16 02:09:36;;;;;;;0.60;0.50;;;;;;;9.14;100.00;98014.06;4974730;28;20208;-78
2024/03/16 02:12:04;;;;;;;0.90;0.40;;;;;;;9.15;100.00;98008.69;4973772;28;20749;-78
2024/03/16 02:14:30;;;;;;;0.40;0.40;;;;;;;9.17;100.00;98016.53;4974638;28;20218;-77
2024/03/16 02:16:57;;;;;;;0.70;0.50;;;;;;;9.13;100.00;98021.13;4972848;28;20218;-80
2024/03/16 02:19:24;;;;;;;0.70;0.40;;;;;;;9.18;100.00;98018.22;4972465;28;20218;-80
2024/03/16 02:21:50;;;;;;;0.30;0.30;;;;;;;9.21;100.00;98012.72;4972245;28;20354;-79
2024/03/16 02:24:17;;;;;;;0.77;0.50;;;;;;;9.17;100.00;98014.72;4972693;28;20234;-78
2024/03/16 02:26:45;;;;;;;0.40;0.37;;;;;;;9.19;100.00;98019.91;4971667;28;20703;-79
2024/03/16 02:29:12;;;;;;;2.17;0.50;;;;;;;9.20;100.00;98005.75;4973716;28;20233;-79
2024/03/16 02:31:39;;;;;;;0.43;0.40;;;;;;;9.21;100.00;98012.72;4973976;28;20326;-78
2024/03/16 02:34:07;;;;;;;0.50;0.40;;;;;;;9.17;100.00;98000.72;4973817;28;20221;-78
2024/03/16 02:36:33;;;;;;;0.70;0.40;;;;;;;9.10;100.00;98012.56;4974213;28;20512;-79
2024/03/16 02:39:00;;;;;;;0.30;0.30;;;;;;;9.04;100.00;98016.47;4974449;28;20208;-79
2024/03/16 02:41:27;;;;;;;0.73;0.50;;;;;;;9.02;100.00;98012.22;4973761;28;20704;-79
2024/03/16 02:43:54;;;;;;;0.80;0.40;;;;;;;8.96;100.00;98010.00;4974443;28;20248;-78
2024/03/16 02:46:21;;;;;;;0.63;0.50;;;;;;;8.93;100.00;98012.84;4974762;28;20211;-78
2024/03/16 02:48:48;;;;;;;0.90;0.40;;;;;;;8.86;100.00;98009.75;4974962;28;20222;-78
2024/03/16 02:51:15;;;;;;;1.10;0.67;;;;;;;8.79;100.00;98002.31;4974480;28;20226;-78
2024/03/16 02:53:42;;;;;;;1.40;0.53;;;;;;;8.76;100.00;98006.00;4975102;28;20210;-78
2024/03/16 02:56:08;;;;;;;0.57;0.43;;;;;;;8.80;100.00;98001.38;4974646;28;20224;-78
2024/03/16 02:58:35;;;;;;;0.60;0.60;;;;;;;8.79;100.00;97994.41;4974651;28;20220;-78
2024/03/16 03:01:02;;;;;;;0.90;0.40;;;;;;;8.79;100.00;97999.69;4973571;28;20243;-78
2024/03/16 03:03:29;;;;;;;1.43;0.57;;;;;;;8.81;100.00;97992.53;4974598;28;20234;-78
2024/03/16 03:05:56;;;;;;;0.30;0.30;;;;;;;8.86;100.00;98000.97;4974958;28;20684;-78
2024/03/16 03:08:22;;;;;;;1.03;0.40;;;;;;;8.89;100.00;98008.69;4974454;28;20214;-78
2024/03/16 03:10:49;;;;;;;0.53;0.47;;;;;;;8.89;100.00;98000.78;4973781;28;20584;-78
2024/03/16 03:13:16;;;;;;;0.90;0.90;;;;;;;8.93;100.00;98003.13;4974256;28;20213;-78
2024/03/16 03:15:42;;;;;;;0.83;0.40;;;;;;;8.96;100.00;97997.66;4974444;28;20224;-78
2024/03/16 03:18:10;;;;;;;0.87;0.40;;;;;;;9.05;100.00;98012.06;4973355;28;20421;-78
2024/03/16 03:20:36;;;;;;;2.07;0.53;;;;;;;9.09;100.00;98005.59;4977464;28;20234;-79
2024/03/16 03:23:05;;;;;;;0.77;0.50;;;;;;;9.17;100.00;98011.25;4977303;28;20668;-79
2024/03/16 03:25:31;;;;;;;0.90;0.60;;;;;;;9.22;100.00;98017.03;4974291;28;20284;-78
2024/03/16 03:27:58;;;;;;;0.40;0.33;;;;;;;9.28;100.00;98019.28;4974047;28;20322;-78
2024/03/16 03:30:25;;;;;;;2.10;0.70;;;;;;;9.34;100.00;98025.00;4973679;28;20229;-78
2024/03/16 03:32:51;;;;;;;0.50;0.50;;;;;;;9.35;100.00;98017.91;4974167;28;20210;-78
2024/03/16 03:35:18;;;;;;;1.33;0.50;;;;;;;9.34;100.00;98026.78;4973235;28;20214;-78
2024/03/16 03:37:44;;;;;;;1.50;0.70;;;;;;;9.31;100.00;98035.75;4973228;28;20211;-78
2024/03/16 03:40:11;;;;;;;1.20;0.47;;;;;;;9.29;100.00;98047.34;4974293;28;20309;-77
2024/03/16 03:42:44;;;;;;;1.87;0.80;;;;;;;9.26;100.00;98053.69;4975098;28;20498;-78
2024/03/16 03:45:24;;;;;;;0.50;0.50;;;;;;;9.22;100.00;98056.59;4975719;28;20210;-78
2024/03/16 03:48:00;;;;;;;1.53;0.87;;;;;;;9.19;100.00;98065.53;4976199;28;20224;-78
2024/03/16 03:50:26;;;;;;;1.40;0.70;;;;;;;9.20;100.00;98064.63;4975253;28;20237;-77
2024/03/16 03:52:53;;;;;;;1.27;0.73;;;;;;;9.21;100.00;98070.72;4975471;28;20563;-78
2024/03/16 03:55:20;;;;;;;1.33;0.70;;;;;;;9.18;100.00;98073.56;4975675;28;20694;-78
2024/03/16 03:57:46;;;;;;;1.83;1.10;;;;;;;9.20;100.00;98069.03;4975461;28;20211;-77
2024/03/16 04:00:15;;;;;;;1.70;0.70;;;;;;;9.17;100.00;98069.25;4974912;28;20214;-77
2024/03/16 04:02:41;;;;;;;2.17;1.00;;;;;;;9.16;100.00;98067.53;4974751;28;20246;-77
2024/03/16 04:05:08;;;;;;;0.80;0.70;;;;;;;9.14;100.00;98059.75;4975022;28;20248;-77
2024/03/16 04:07:35;;;;;;;0.67;0.67;;;;;;;9.08;100.00;98068.06;4975288;28;20217;-77
2024/03/16 04:10:02;;;;;;;0.50;0.50;;;;;;;9.05;100.00;98070.03;4975158;28;20515;-78
2024/03/16 04:12:28;;;;;;;1.37;0.83;;;;;;;9.08;100.00;98075.09;4974614;28;20305;-77
2024/03/16 04:14:55;;;;;;;1.57;0.70;;;;;;;9.06;100.00;98077.00;4975147;28;20205;-77
2024/03/16 04:17:21;;;;;;;2.13;0.90;;;;;;;9.04;100.00;98078.88;4974423;28;20210;-77
2024/03/16 04:19:48;;;;;;;1.33;0.67;;;;;;;9.02;100.00;98080.75;4974648;28;20221;-77
2024/03/16 04:22:15;;;;;;;0.80;0.80;;;;;;;9.04;100.00;98079.72;4974714;28;20245;-77
2024/03/16 04:24:41;;;;;;;2.20;0.80;;;;;;;9.06;100.00;98087.53;4974962;28;20257;-77
2024/03/16 04:27:08;;;;;;;0.77;0.77;;;;;;;9.02;100.00;98086.03;4975038;28;20219;-78
2024/03/16 04:29:35;;;;;;;2.67;0.80;;;;;;;9.05;100.00;98096.41;4975516;28;20218;-78
2024/03/16 04:32:01;;;;;;;1.77;0.80;;;;;;;9.01;100.00;98092.25;4974733;28;20240;-78
2024/03/16 04:34:28;;;;;;;1.37;0.70;;;;;;;8.99;100.00;98094.16;4975301;28;20211;-77
2024/03/16 04:36:55;;;;;;;1.10;0.93;;;;;;;9.02;100.00;98099.22;4974748;28;20212;-77
2024/03/16 04:39:22;;;;;;;1.60;0.70;;;;;;;8.96;100.00;98097.84;4974380;28;20582;-77
2024/03/16 04:41:49;;;;;;;0.90;0.70;;;;;;;8.97;100.00;98090.75;4975182;28;20293;-77
2024/03/16 04:44:15;;;;;;;1.20;0.60;;;;;;;8.93;100.00;98092.75;4974327;28;20229;-79
2024/03/16 04:46:42;;;;;;;1.20;0.80;;;;;;;8.90;100.00;98087.69;4975885;28;20305;-78
2024/03/16 04:49:09;;;;;;;2.33;0.90;;;;;;;8.91;100.00;98088.50;4975774;28;20218;-78
2024/03/16 04:51:35;;;;;;;2.03;1.20;;;;;;;8.93;100.00;98081.38;4974916;28;20238;-79
2024/03/16 04:54:02;;;;;;;1.17;1.00;;;;;;;8.93;100.00;98090.09;4985883;28;20224;-77
2024/03/16 04:56:28;;;;;;;0.80;0.63;;;;;;;8.91;100.00;98088.50;4993916;28;20282;-79
2024/03/16 04:58:55;;;;;;;1.53;1.03;;;;;;;8.90;100.00;98084.19;4994114;28;20674;-77
2024/03/16 05:01:22;;;;;;;1.77;0.77;;;;;;;8.89;100.00;98085.13;4983223;28;20732;-77
2024/03/16 05:03:48;;;;;;;1.80;0.93;;;;;;;8.88;100.00;98079.00;4980832;28;20230;-78
2024/03/16 05:06:15;;;;;;;1.80;0.80;;;;;;;8.84;100.00;98076.66;4978869;28;20249;-78
2024/03/16 05:08:41;;;;;;;1.33;0.90;;;;;;;8.81;100.00;98079.50;4974546;28;20213;-79
2024/03/16 05:11:09;;;;;;;1.30;0.80;;;;;;;8.80;100.00;98076.00;4979086;28;20323;-80
2024/03/16 05:13:36;;;;;;;0.70;0.63;;;;;;;8.74;100.00;98079.03;4977724;28;20206;-80
2024/03/16 05:16:06;;;;;;;2.47;0.80;;;;;;;8.69;100.00;98083.72;4978435;28;20207;-78
2024/03/16 05:18:33;;;;;;;0.70;0.70;;;;;;;8.61;100.00;98087.78;4977671;28;20213;-80
2024/03/16 05:21:00;;;;;;;2.47;0.60;;;;;;;8.56;100.00;98103.06;4975519;28;20233;-77
2024/03/16 05:23:27;;;;;;;1.57;0.70;;;;;;;8.49;100.00;98092.03;4975660;28;20249;-77
2024/03/16 05:25:53;;;;;;;1.60;0.70;;;;;;;8.45;100.00;98087.06;4973369;28;20219;-77
2024/03/16 05:28:20;;;;;;;0.93;0.70;;;;;;;8.52;100.00;98098.91;4976132;28;20618;-78
2024/03/16 05:30:47;;;;;;;1.07;0.80;;;;;;;8.58;100.00;98095.91;4959617;28;20732;-78
2024/03/16 05:33:14;;;;;;;2.73;0.80;;;;;;;8.63;100.00;98101.72;4975080;28;20219;-77
2024/03/16 05:35:41;;;;;;;0.70;0.57;;;;;;;8.61;100.00;98100.97;4975503;28;20274;-78
2024/03/16 05:38:08;;;;;;;1.50;0.70;;;;;;;8.56;100.00;98103.88;4975229;28;20673;-77
2024/03/16 05:40:35;;;;;;;1.67;0.73;;;;;;;8.51;100.00;98099.84;4974748;28;20242;-77
2024/03/16 05:43:02;;;;;;;1.33;0.90;;;;;;;8.46;100.00;98101.91;4974995;28;20397;-77
2024/03/16 05:45:29;;;;;;;1.30;0.90;;;;;;;8.39;100.00;98105.88;4974528;28;20237;-78
2024/03/16 05:47:55;;;;;;;0.50;0.50;;;;;;;8.36;100.00;98113.94;4974891;28;20213;-78
2024/03/16 05:50:22;;;;;;;1.30;0.80;;;;;;;8.36;100.00;98116.56;4973957;28;20249;-78
2024/03/16 05:52:48;;;;;;;0.90;0.70;;;;;;;8.40;100.00;98112.81;4974502;28;20562;-78
2024/03/16 05:55:15;;;;;;;0.80;0.80;;;;;;;8.42;100.00;98108.28;4974422;28;20206;-78
2024/03/16 05:57:42;;;;;;;0.80;0.73;;;;;;;8.45;100.00;98116.03;4974370;28;20219;-78
2024/03/16 06:00:14;;;;;;;2.97;0.93;;;;;;;8.54;100.00;98118.09;4973478;28;20553;-77
2024/03/16 06:02:41;;;;;;;2.23;0.87;;;;;;;8.58;100.00;98122.22;4973568;28;20632;-77
2024/03/16 06:05:07;;;;;;;2.30;0.80;;;;;;;8.65;100.00;98131.44;4972552;28;20231;-79
2024/03/16 06:07:34;;;;;;;1.97;0.83;;;;;;;8.69;100.00;98135.59;4972107;28;20214;-77
2024/03/16 06:10:00;;;;;;;2.50;0.83;;;;;;;8.75;100.00;98130.78;4972285;28;20211;-77
2024/03/16 06:12:30;;;;;;;1.40;0.73;;;;;;;8.78;100.00;98140.28;4973550;28;20221;-78
2024/03/16 06:14:57;;;;;;;2.20;0.70;;;;;;;8.77;100.00;98141.22;4973823;28;20217;-79
2024/03/16 06:17:24;;;;;;;1.33;0.80;;;;;;;8.78;100.00;98141.16;4972490;28;20213;-79
2024/03/16 06:19:51;;;;;;;3.23;0.77;;;;;;;8.81;100.00;98140.13;4973193;28;20294;-77
2024/03/16 06:22:18;;;;;;;0.87;0.87;;;;;;;8.83;100.00;98146.13;4973139;28;20249;-78
2024/03/16 06:24:47;;;;;;;1.63;0.80;;;;;;;8.85;100.00;98147.72;4973178;28;20335;-78
2024/03/16 06:27:18;;;;;;;0.73;0.63;;;;;;;8.87;100.00;98152.91;4972999;28;20659;-78
2024/03/16 06:29:51;;;;;;;0.83;0.77;;;;;;;8.93;100.00;98155.16;4973451;28;20283;-78
2024/03/16 06:32:20;;;;;;;1.90;0.90;;;;;;;8.98;100.00;98167.09;4973324;28;20324;-78
2024/03/16 06:34:46;;;;;;;1.00;0.80;;;;;;;9.03;100.00;98164.19;4978276;28;20317;-78
2024/03/16 06:37:13;;;;;;;1.67;0.80;;;;;;;9.05;100.00;98162.31;4977706;28;20239;-78
2024/03/16 06:39:40;;;;;;;1.30;0.90;;;;;;;9.12;100.00;98166.25;4975571;28;20220;-79
2024/03/16 06:42:06;;;;;;;1.43;0.70;;;;;;;9.16;100.00;98173.00;4971795;28;20720;-78
2024/03/16 06:44:33;;;;;;;1.57;0.97;;;;;;;9.16;100.00;98171.22;4971634;28;20263;-77
2024/03/16 06:47:00;;;;;;;3.70;1.63;;;;;;;9.21;100.00;98176.22;4972473;28;20614;-78
2024/03/16 06:49:26;;;;;;;3.00;1.70;;;;;;;9.27;100.00;98178.47;4972566;28;20213;-78
2024/03/16 06:51:53;;;;;;;1.57;1.00;;;;;;;9.36;100.00;98189.28;4972027;28;20234;-78
2024/03/16 06:54:20;;;;;;;2.13;1.10;;;;;;;9.45;100.00;98190.47;4972727;28;20232;-78
2024/03/16 06:56:46;;;;;;;2.00;1.30;;;;;;;9.50;100.00;98185.75;4973222;28;20218;-78
2024/03/16 06:59:13;;;;;;;1.70;1.30;;;;;;;9.54;100.00;98189.91;4973311;28;20219;-78
2024/03/16 07:01:39;;;;;;;1.87;0.93;;;;;;;9.53;100.00;98193.47;4972538;28;20245;-78
2024/03/16 07:04:06;;;;;;;1.40;0.90;;;;;;;9.53;100.00;98198.75;4973494;28;20231;-78
2024/03/16 07:06:32;;;;;;;0.70;0.53;;;;;;;9.55;100.00;98204.78;4980305;28;20206;-78
2024/03/16 07:09:03;;;;;;;2.00;0.80;;;;;;;9.51;100.00;98212.06;4979762;28;20214;-79
2024/03/16 07:11:29;;;;;;;1.70;0.60;;;;;;;9.49;100.00;98211.28;4978949;28;20231;-78
2024/03/16 07:13:57;;;;;;;2.10;0.70;;;;;;;9.49;100.00;98226.28;4987402;28;20203;-79
2024/03/16 07:16:24;;;;;;;2.03;0.70;;;;;;;9.53;100.00;98225.13;4992905;28;20737;-78
2024/03/16 07:18:51;;;;;;;2.17;0.80;;;;;;;9.62;100.00;98235.13;4994673;28;20212;-76
2024/03/16 07:21:19;;;;;;;2.10;0.87;;;;;;;9.70;100.00;98235.47;4983889;28;20233;-77
2024/03/16 07:23:47;;;;;;;1.17;0.70;;;;;;;9.82;100.00;98247.88;4980725;28;20243;-77
2024/03/16 07:26:14;;;;;;;1.87;0.50;;;;;;;9.79;100.00;98243.63;4981182;28;20294;-84
2024/03/16 07:28:43;;;;;;;1.37;0.70;;;;;;;9.79;100.00;98245.44;4984732;28;20201;-84
2024/03/16 07:31:10;;;;;;;1.70;0.60;;;;;;;9.84;100.00;98253.91;4984150;28;20233;-84
2024/03/16 07:33:37;;;;;;;1.00;0.53;;;;;;;9.84;100.00;98251.28;4977663;28;20223;-80
2024/03/16 07:36:04;;;;;;;1.23;0.60;;;;;;;9.87;100.00;98259.84;4975651;28;20213;-80
2024/03/16 07:38:30;;;;;;;0.40;0.40;;;;;;;9.85;100.00;98256.44;4976307;28;20281;-77
2024/03/16 07:40:57;;;;;;;0.90;0.60;;;;;;;9.90;100.00;98257.00;4975250;28;20230;-79
2024/03/16 07:43:24;;;;;;;0.50;0.50;;;;;;;9.92;100.00;98260.38;4976652;28;20269;-78
2024/03/16 07:45:50;;;;;;;1.10;0.60;;;;;;;9.95;100.00;98256.69;4976445;28;20230;-79
2024/03/16 07:48:17;;;;;;;2.00;0.60;;;;;;;9.92;100.00;98251.63;4977793;28;20213;-80
2024/03/16 07:50:44;;;;;;;0.60;0.60;;;;;;;9.93;100.00;98256.81;4981135;28;20241;-79
2024/03/16 07:53:11;;;;;;;2.80;0.50;;;;;;;9.98;100.00;98269.72;4980839;28;20214;-78
2024/03/16 07:55:38;;;;;;;0.93;0.43;;;;;;;10.02;100.00;98266.75;4981025;28;20662;-78
2024/03/16 07:58:05;;;;;;;0.93;0.50;;;;;;;10.08;100.00;98262.91;4975257;28;20588;-77
2024/03/16 08:00:32;;;;;;;1.00;0.73;;;;;;;10.07;100.00;98263.84;4973973;28;20234;-78
2024/03/16 08:03:00;;;;;;;1.13;0.60;;;;;;;10.10;100.00;98274.22;4975468;28;20218;-80
2024/03/16 08:05:27;;;;;;;1.23;0.50;;;;;;;10.17;100.00;98276.38;4962234;28;20238;-80
2024/03/16 08:07:53;;;;;;;1.65;0.60;;;;;;;10.28;100.00;98281.78;4955066;28;21088;-78
2024/03/16 08:10:20;;;;;;;3.13;0.60;;;;;;;10.35;100.00;98274.31;4956780;28;20216;-77
2024/03/16 08:12:47;;;;;;;0.93;0.47;;;;;;;10.48;100.00;98291.03;4957903;28;20211;-77
2024/03/16 08:15:14;;;;;;;2.03;0.80;;;;;;;10.60;100.00;98287.59;4953409;29;20232;-78
2024/03/16 08:17:40;;;;;;;2.10;0.50;;;;;;;10.72;100.00;98300.84;4952370;29;20570;-77
2024/03/16 08:20:08;;;;;;;1.00;0.80;;;;;;;10.86;100.00;98294.59;4938015;28;20218;-77
2024/03/16 08:22:35;;;;;;;1.30;0.57;;;;;;;10.96;100.00;98303.63;4938461;29;20208;-78
2024/03/16 08:25:02;;;;;;;1.23;0.70;;;;;;;11.02;100.00;98292.63;4937617;29;20262;-77
2024/03/16 08:27:28;;;;;;;1.67;0.60;;;;;;;11.07;100.00;98295.81;4937702;29;20419;-77
2024/03/16 08:29:55;;;;;;;2.00;0.70;;;;;;;11.12;100.00;98302.47;4938187;29;20663;-77
2024/03/16 08:32:22;;;;;;;1.40;0.67;;;;;;;11.24;100.00;98300.75;4938904;28;20647;-78
2024/03/16 08:34:49;;;;;;;2.17;0.67;;;;;;;11.36;100.00;98302.56;4938628;29;20306;-78
2024/03/16 08:37:15;;;;;;;1.97;0.60;;;;;;;11.50;100.00;98299.81;4938244;29;20208;-77
2024/03/16 08:39:43;;;;;;;1.17;0.60;;;;;;;11.58;100.00;98308.06;4944283;29;20688;-77
2024/03/16 08:42:10;;;;;;;1.30;0.87;;;;;;;11.65;100.00;98304.06;4950977;28;20227;-78
2024/03/16 08:44:37;;;;;;;1.80;0.50;;;;;;;11.54;100.00;98306.56;4957013;28;20925;-79
2024/03/16 08:47:05;;;;;;;1.10;0.70;;;;;;;11.55;100.00;98309.13;4948341;28;20587;-77
2024/03/16 08:49:31;;;;;;;2.13;0.60;;;;;;;11.59;100.00;98315.06;4934305;29;20221;-77
2024/03/16 08:51:59;;;;;;;2.47;0.90;;;;;;;11.68;100.00;98325.03;4930348;29;20235;-78
2024/03/16 08:54:26;;;;;;;1.20;0.80;;;;;;;11.66;100.00;98322.47;4935357;29;20215;-79
2024/03/16 08:56:53;;;;;;;3.40;0.80;;;;;;;11.63;100.00;98322.69;4936293;29;20257;-78
2024/03/16 08:59:19;;;;;;;1.27;0.90;;;;;;;11.38;100.00;98321.84;4941406;29;20219;-78
2024/03/16 09:01:46;;;;;;;1.13;0.80;;;;;;;11.36;100.00;98329.03;4931924;29;20246;-79
2024/03/16 09:04:14;;;;;;;1.37;0.80;;;;;;;11.27;100.00;98337.59;4937005;29;20230;-79
2024/03/16 09:06:40;;;;;;;2.20;0.80;;;;;;;11.35;100.00;98337.91;4938360;28;20743;-78
2024/03/16 09:09:10;;;;;;;3.57;0.90;;;;;;;11.54;100.00;98333.03;4972105;28;20301;-78
2024/03/16 09:11:37;;;;;;;2.73;0.70;;;;;;;11.84;100.00;98330.91;4972488;28;20255;-79
2024/03/16 09:14:05;;;;;;;0.77;0.73;;;;;;;12.01;100.00;98327.91;4972359;28;20264;-78
2024/03/16 09:16:32;;;;;;;0.90;0.50;;;;;;;12.04;100.00;98335.66;4973243;28;20688;-78
2024/03/16 09:18:59;;;;;;;1.73;0.70;;;;;;;12.14;100.00;98334.03;4970423;28;20223;-78
2024/03/16 09:21:25;;;;;;;1.80;0.60;;;;;;;12.29;100.00;98319.69;4970965;28;20237;-78
2024/03/16 09:23:52;;;;;;;1.57;0.60;;;;;;;12.36;100.00;98328.88;4970547;28;20223;-78
2024/03/16 09:26:18;;;;;;;1.50;0.57;;;;;;;12.49;100.00;98321.69;4967574;28;20238;-78
2024/03/16 09:28:45;;;;;;;1.17;0.60;;;;;;;12.52;100.00;98321.47;4969196;28;20214;-78
2024/03/16 09:31:12;;;;;;;1.07;0.70;;;;;;;12.60;100.00;98321.75;4977977;28;20227;-78
2024/03/16 09:33:38;;;;;;;3.43;0.60;;;;;;;12.60;100.00;98332.38;4985689;28;20230;-78
2024/03/16 09:36:06;;;;;;;1.63;0.73;;;;;;;12.65;100.00;98324.91;4984165;28;20267;-78
2024/03/16 09:38:34;;;;;;;0.80;0.60;;;;;;;12.89;100.00;98333.69;4960059;28;20855;-78
2024/03/16 09:41:01;;;;;;;0.87;0.67;;;;;;;12.96;100.00;98342.91;4953140;28;20237;-79
2024/03/16 09:43:27;;;;;;;0.67;0.57;;;;;;;13.00;100.00;98336.41;4952848;28;20238;-78
2024/03/16 09:45:54;;;;;;;1.23;0.67;;;;;;;13.06;100.00;98341.22;4953105;29;20231;-78
2024/03/16 09:48:21;;;;;;;1.37;0.70;;;;;;;13.02;100.00;98340.63;4947749;28;20215;-78
2024/03/16 09:50:48;;;;;;;1.83;0.70;;;;;;;13.04;100.00;98327.25;4952742;28;20243;-84
2024/03/16 09:53:16;;;;;;;0.77;0.60;;;;;;;12.91;100.00;98331.75;4958388;28;20210;-80
2024/03/16 09:55:43;;;;;;;1.07;0.60;;;;;;;12.79;100.00;98335.34;4957436;28;20423;-80
2024/03/16 09:58:09;;;;;;;1.73;1.03;;;;;;;12.62;100.00;98330.44;4956272;28;20219;-79
2024/03/16 10:00:37;;;;;;;1.63;0.60;;;;;;;12.53;100.00;98341.72;4955980;28;20235;-80
2024/03/16 10:03:04;;;;;;;1.00;0.50;;;;;;;12.50;100.00;98342.81;4955598;28;20653;-77
2024/03/16 10:05:31;;;;;;;0.97;0.60;;;;;;;12.52;100.00;98351.47;4954160;28;20239;-77
2024/03/16 10:07:58;;;;;;;0.80;0.40;;;;;;;12.64;100.00;98355.88;4956637;28;20284;-78
2024/03/16 10:10:25;;;;;;;1.60;0.80;;;;;;;12.72;100.00;98352.66;4954756;28;20238;-77
2024/03/16 10:12:52;;;;;;;1.77;0.57;;;;;;;12.87;100.00;98340.91;4952616;28;20215;-78
2024/03/16 10:15:19;;;;;;;1.73;0.50;;;;;;;12.94;100.00;98343.00;4958739;28;20376;-80
2024/03/16 10:17:46;;;;;;;1.03;0.70;;;;;;;13.13;100.00;98353.06;4959110;29;20211;-79
2024/03/16 10:20:16;;;;;;;2.43;0.90;;;;;;;13.28;100.00;98352.78;4960282;28;20657;-79
2024/03/16 10:22:45;;;;;;;2.53;0.60;;;;;;;13.28;100.00;98349.25;4960278;28;20742;-79
2024/03/16 10:25:12;;;;;;;2.30;0.63;;;;;;;13.36;100.00;98366.31;4959148;28;20227;-79
2024/03/16 10:27:39;;;;;;;0.47;0.43;;;;;;;13.39;100.00;98349.31;4956871;29;20234;-79
2024/03/16 10:30:10;;;;;;;0.40;0.40;;;;;;;13.46;100.00;98343.38;4956248;28;20215;-79
2024/03/16 10:32:37;;;;;;;1.13;0.70;;;;;;;13.57;100.00;98358.50;4956364;28;20215;-77
2024/03/16 10:35:07;;;;;;;1.20;0.47;;;;;;;13.62;100.00;98343.88;4957661;28;20219;-79
2024/03/16 10:37:35;;;;;;;0.40;0.40;;;;;;;13.53;100.00;98343.75;4961571;28;20218;-80
2024/03/16 10:40:13;;;;;;;0.53;0.30;;;;;;;13.49;100.00;98352.91;4960061;28;20213;-79
2024/03/16 10:42:41;;;;;;;0.53;0.50;;;;;;;13.39;100.00;98354.59;4964654;28;20245;-82
2024/03/16 10:45:09;;;;;;;1.00;0.50;;;;;;;13.64;100.00;98378.31;4960793;28;20211;-78
2024/03/16 10:47:35;;;;;;;0.70;0.60;;;;;;;13.76;100.00;98358.75;4965364;28;20223;-80
2024/03/16 10:50:02;;;;;;;0.40;0.40;;;;;;;13.70;99.54;98360.06;4961781;28;20213;-81
2024/03/16 10:52:29;;;;;;;0.93;0.63;;;;;;;13.58;100.00;98365.50;4993450;28;20877;-80
2024/03/16 10:54:56;;;;;;;0.53;0.53;;;;;;;13.40;100.00;98361.59;4996489;28;20311;-80
2024/03/16 10:57:25;;;;;;;1.83;0.50;;;;;;;13.26;100.00;98370.63;4995416;28;20223;-80
2024/03/16 10:59:51;;;;;;;1.53;0.43;;;;;;;13.24;100.00;98372.53;4978569;28;20267;-79
2024/03/16 11:02:19;;;;;;;0.67;0.40;;;;;;;13.15;100.00;98377.72;4946829;29;20227;-81
2024/03/16 11:04:51;;;;;;;0.53;0.40;;;;;;;13.23;100.00;98372.66;4946246;29;20215;-81
2024/03/16 11:07:19;;;;;;;0.70;0.60;;;;;;;13.28;100.00;98378.47;4942940;29;20754;-82
2024/03/16 11:09:45;;;;;;;1.00;0.60;;;;;;;13.40;100.00;98373.09;4941707;29;20215;-80
2024/03/16 11:12:30;;;;;;;0.80;0.40;;;;;;;13.46;100.00;98367.25;4943877;29;20232;-80
2024/03/16 11:15:38;;;;;;;2.03;0.47;;;;;;;13.63;100.00;98363.34;4960459;28;20212;-81
2024/03/16 11:18:56;;;;;;;2.33;0.60;;;;;;;13.67;97.61;98340.84;4952987;28;20212;-80
2024/03/16 11:21:23;;;;;;;1.57;0.50;;;;;;;13.62;100.00;98356.34;4961899;28;20233;-80
2024/03/16 11:23:49;;;;;;;1.07;0.40;;;;;;;13.65;100.00;98362.25;4944690;29;20279;-80
2024/03/16 11:26:34;;;;;;;0.93;0.50;;;;;;;13.66;100.00;98363.06;4945122;29;20250;-81
2024/03/16 11:29:16;;;;;;;2.30;1.50;;;;;;;13.88;100.00;98369.25;4944660;29;20255;-81
2024/03/16 11:31:42;;;;;;;1.47;0.40;;;;;;;13.98;100.00;98358.72;4947940;29;20241;-80
2024/03/16 11:34:09;;;;;;;0.70;0.53;;;;;;;14.09;97.49;98358.72;4945647;29;20208;-81